createdAt,value
2018-12-29T15:20:04.565Z,85.19
2018-12-29T15:25:11.808Z,85.00
2018-12-29T15:30:25.628Z,83.05
2018-12-29T15:35:32.079Z,81.87
2018-12-29T15:40:38.834Z,80.87
2018-12-29T15:45:45.261Z,83.21
2018-12-29T15:50:52.223Z,83.65
2018-12-29T15:55:58.892Z,81.00
2018-12-29T16:01:06.027Z,80.49
2018-12-29T16:06:12.539Z,81.04
2018-12-29T16:11:25.965Z,79.96
2018-12-29T16:16:27.879Z,79.90
2018-12-29T16:21:36.473Z,80.17
2018-12-29T16:26:43.091Z,80.75
2018-12-29T16:31:50.327Z,80.66
2018-12-29T16:36:58.818Z,79.93
2018-12-29T16:42:06.287Z,80.68
2018-12-29T16:47:12.604Z,80.62
2018-12-29T16:52:19.115Z,79.70
2018-12-29T16:57:27.322Z,79.10
2018-12-29T17:02:35.072Z,79.78
2018-12-29T17:07:42.908Z,78.50
2018-12-29T17:12:50.658Z,78.09
2018-12-29T17:17:58.182Z,78.19
2018-12-29T17:23:05.006Z,77.78
2018-12-29T17:28:12.532Z,77.66
2018-12-29T17:33:19.658Z,77.35
2018-12-29T17:38:28.892Z,77.84
2018-12-29T17:43:36.057Z,78.85
2018-12-29T17:48:43.234Z,78.66
2018-12-29T17:53:51.812Z,77.52
2018-12-29T17:58:58.065Z,78.62
2018-12-29T18:04:04.841Z,79.26
2018-12-29T18:09:11.858Z,79.15
2018-12-29T18:14:18.558Z,80.41
2018-12-29T18:19:30.536Z,81.82
2018-12-29T18:24:33.967Z,82.41
2018-12-29T18:29:40.634Z,82.57
2018-12-29T18:34:47.102Z,83.14
2018-12-29T18:39:55.952Z,83.01
2018-12-29T18:45:02.562Z,83.20
2018-12-29T18:50:09.000Z,83.34
2018-12-29T18:55:15.313Z,83.05
2018-12-29T19:00:21.997Z,82.07
2018-12-29T19:05:28.440Z,81.61
2018-12-29T19:10:36.286Z,82.91
2018-12-29T19:15:43.170Z,82.68
2018-12-29T19:20:51.583Z,82.14
2018-12-29T19:25:57.977Z,83.18
2018-12-29T19:31:06.755Z,82.92
2018-12-29T19:36:13.409Z,82.24
2018-12-29T19:41:20.236Z,82.38
2018-12-29T19:46:27.046Z,82.38
2018-12-29T19:51:33.699Z,82.93
2018-12-29T19:56:41.503Z,83.06
2018-12-29T20:01:50.276Z,83.51
2018-12-29T20:06:59.244Z,83.20
2018-12-29T20:12:08.944Z,84.18
2018-12-29T20:17:15.795Z,83.26
2018-12-29T20:22:22.831Z,82.93
2018-12-29T20:27:31.496Z,82.91
2018-12-29T20:32:40.129Z,83.60
2018-12-29T20:37:49.448Z,83.76
2018-12-29T20:42:55.564Z,84.17
2018-12-29T20:48:01.826Z,85.10
2018-12-29T20:53:08.155Z,84.86
2018-12-29T20:58:15.427Z,84.16
2018-12-29T21:03:22.217Z,83.83
2018-12-29T21:08:29.855Z,84.18
2018-12-29T21:13:37.803Z,83.09
2018-12-29T21:18:45.147Z,82.67
2018-12-29T21:23:55.301Z,82.88
2018-12-29T21:29:01.950Z,82.50
2018-12-29T21:34:08.324Z,80.76
2018-12-29T21:39:14.618Z,81.13
2018-12-29T21:44:20.954Z,82.38
2018-12-29T21:49:27.261Z,82.96
2018-12-29T21:54:33.478Z,82.83
2018-12-29T21:59:39.996Z,83.31
2018-12-29T22:04:46.319Z,83.83
2018-12-29T22:09:55.126Z,84.25
2018-12-29T22:15:03.617Z,84.27
2018-12-29T22:20:11.334Z,84.08
2018-12-29T22:25:18.658Z,84.06
2018-12-29T22:30:25.077Z,83.99
2018-12-29T22:35:31.444Z,83.80
2018-12-29T22:40:38.067Z,84.30
2018-12-29T22:45:44.564Z,84.25
2018-12-29T22:50:51.019Z,84.27
2018-12-29T22:55:58.608Z,83.42
2018-12-29T23:01:05.190Z,83.09
2018-12-29T23:06:12.209Z,83.71
2018-12-29T23:11:18.686Z,83.08
2018-12-29T23:16:25.008Z,83.01
2018-12-29T23:21:32.233Z,82.82
2018-12-29T23:26:39.708Z,83.70
2018-12-29T23:31:47.007Z,83.73
2018-12-29T23:36:53.504Z,85.03
2018-12-29T23:41:59.887Z,84.69
2018-12-29T23:47:06.431Z,84.33
2018-12-29T23:52:12.663Z,84.81
2018-12-29T23:57:18.760Z,82.70
